sensor_id;sensor_type;location;lat;lon;timestamp;P1;durP1;ratioP1;P2;durP2;ratioP2
19944;SDS011;10134;50.952;6.930;2023-02-26T00:01:37;8.90;;;2.20;;
19944;SDS011;10134;50.952;6.930;2023-02-26T00:04:05;5.40;;;2.07;;
19944;SDS011;10134;50.952;6.930;2023-02-26T00:06:34;6.13;;;2.37;;
19944;SDS011;10134;50.952;6.930;2023-02-26T00:09:04;6.83;;;2.40;;
19944;SDS011;10134;50.952;6.930;2023-02-26T00:11:32;4.67;;;2.20;;
19944;SDS011;10134;50.952;6.930;2023-02-26T00:13:59;4.13;;;1.90;;
19944;SDS011;10134;50.952;6.930;2023-02-26T00:16:31;4.53;;;2.03;;
19944;SDS011;10134;50.952;6.930;2023-02-26T00:19:02;3.87;;;1.80;;
19944;SDS011;10134;50.952;6.930;2023-02-26T00:21:32;2.20;;;1.43;;
19944;SDS011;10134;50.952;6.930;2023-02-26T00:24:00;5.40;;;2.30;;
19944;SDS011;10134;50.952;6.930;2023-02-26T00:26:29;7.03;;;2.07;;
19944;SDS011;10134;50.952;6.930;2023-02-26T00:28:58;7.00;;;2.70;;
19944;SDS011;10134;50.952;6.930;2023-02-26T00:31:26;5.57;;;2.73;;
19944;SDS011;10134;50.952;6.930;2023-02-26T00:33:54;7.57;;;2.60;;
19944;SDS011;10134;50.952;6.930;2023-02-26T00:36:24;6.50;;;2.00;;
19944;SDS011;10134;50.952;6.930;2023-02-26T00:39:06;6.17;;;2.33;;
19944;SDS011;10134;50.952;6.930;2023-02-26T00:41:54;5.10;;;1.93;;
19944;SDS011;10134;50.952;6.930;2023-02-26T00:44:22;4.97;;;1.50;;
19944;SDS011;10134;50.952;6.930;2023-02-26T00:46:55;9.50;;;2.30;;
19944;SDS011;10134;50.952;6.930;2023-02-26T00:49:39;5.73;;;2.20;;
19944;SDS011;10134;50.952;6.930;2023-02-26T00:52:19;7.40;;;2.13;;
19944;SDS011;10134;50.952;6.930;2023-02-26T00:54:54;5.30;;;1.60;;
19944;SDS011;10134;50.952;6.930;2023-02-26T00:57:22;6.77;;;1.80;;
19944;SDS011;10134;50.952;6.930;2023-02-26T00:59:49;7.90;;;1.43;;
19944;SDS011;10134;50.952;6.930;2023-02-26T01:02:18;8.27;;;2.10;;
19944;SDS011;10134;50.952;6.930;2023-02-26T01:04:45;4.57;;;1.50;;
19944;SDS011;10134;50.952;6.930;2023-02-26T01:07:14;7.67;;;1.80;;
19944;SDS011;10134;50.952;6.930;2023-02-26T01:09:45;5.60;;;1.93;;
19944;SDS011;10134;50.952;6.930;2023-02-26T01:12:13;2.00;;;1.37;;
19944;SDS011;10134;50.952;6.930;2023-02-26T01:14:43;5.33;;;1.33;;
19944;SDS011;10134;50.952;6.930;2023-02-26T01:17:24;4.73;;;2.03;;
19944;SDS011;10134;50.952;6.930;2023-02-26T01:25:08;4.07;;;1.40;;
19944;SDS011;10134;50.952;6.930;2023-02-26T01:27:42;3.17;;;1.63;;
19944;SDS011;10134;50.952;6.930;2023-02-26T01:30:09;2.27;;;1.43;;
19944;SDS011;10134;50.952;6.930;2023-02-26T01:35:52;4.37;;;1.50;;
19944;SDS011;10134;50.952;6.930;2023-02-26T01:41:29;3.03;;;1.30;;
19944;SDS011;10134;50.952;6.930;2023-02-26T01:46:38;5.80;;;1.80;;
19944;SDS011;10134;50.952;6.930;2023-02-26T01:49:18;5.47;;;1.93;;
19944;SDS011;10134;50.952;6.930;2023-02-26T01:51:50;5.63;;;1.80;;
19944;SDS011;10134;50.952;6.930;2023-02-26T01:54:20;6.90;;;1.63;;
19944;SDS011;10134;50.952;6.930;2023-02-26T01:57:01;3.50;;;1.67;;
19944;SDS011;10134;50.952;6.930;2023-02-26T01:59:38;2.47;;;1.33;;
19944;SDS011;10134;50.952;6.930;2023-02-26T02:02:09;5.50;;;1.80;;
19944;SDS011;10134;50.952;6.930;2023-02-26T02:04:39;4.53;;;2.10;;
19944;SDS011;10134;50.952;6.930;2023-02-26T02:07:07;3.90;;;1.73;;
19944;SDS011;10134;50.952;6.930;2023-02-26T02:09:35;3.70;;;1.67;;
19944;SDS011;10134;50.952;6.930;2023-02-26T02:12:16;3.97;;;1.73;;
19944;SDS011;10134;50.952;6.930;2023-02-26T02:20:39;3.63;;;1.80;;
19944;SDS011;10134;50.952;6.930;2023-02-26T02:23:18;5.23;;;1.83;;
19944;SDS011;10134;50.952;6.930;2023-02-26T02:31:47;3.00;;;1.50;;
19944;SDS011;10134;50.952;6.930;2023-02-26T02:34:17;4.70;;;1.40;;
19944;SDS011;10134;50.952;6.930;2023-02-26T02:39:57;5.07;;;1.60;;
19944;SDS011;10134;50.952;6.930;2023-02-26T02:42:47;4.40;;;1.93;;
19944;SDS011;10134;50.952;6.930;2023-02-26T02:48:01;5.83;;;1.93;;
19944;SDS011;10134;50.952;6.930;2023-02-26T02:50:40;4.53;;;1.93;;
19944;SDS011;10134;50.952;6.930;2023-02-26T02:53:14;6.43;;;1.90;;
19944;SDS011;10134;50.952;6.930;2023-02-26T02:55:49;2.27;;;1.63;;
19944;SDS011;10134;50.952;6.930;2023-02-26T02:58:35;3.23;;;1.80;;
19944;SDS011;10134;50.952;6.930;2023-02-26T03:01:08;2.90;;;1.57;;
19944;SDS011;10134;50.952;6.930;2023-02-26T03:03:42;3.03;;;2.10;;
19944;SDS011;10134;50.952;6.930;2023-02-26T03:06:17;4.17;;;1.43;;
19944;SDS011;10134;50.952;6.930;2023-02-26T03:08:48;4.97;;;1.90;;
19944;SDS011;10134;50.952;6.930;2023-02-26T03:11:17;4.13;;;1.63;;
19944;SDS011;10134;50.952;6.930;2023-02-26T03:13:46;8.73;;;2.00;;
19944;SDS011;10134;50.952;6.930;2023-02-26T03:19:00;7.47;;;2.33;;
19944;SDS011;10134;50.952;6.930;2023-02-26T03:24:50;5.30;;;2.07;;
19944;SDS011;10134;50.952;6.930;2023-02-26T03:27:29;8.33;;;1.60;;
19944;SDS011;10134;50.952;6.930;2023-02-26T03:35:34;3.80;;;2.07;;
19944;SDS011;10134;50.952;6.930;2023-02-26T03:38:10;4.47;;;1.90;;
19944;SDS011;10134;50.952;6.930;2023-02-26T03:40:48;2.70;;;1.83;;
19944;SDS011;10134;50.952;6.930;2023-02-26T03:43:24;6.60;;;1.73;;
19944;SDS011;10134;50.952;6.930;2023-02-26T03:45:55;3.23;;;1.47;;
19944;SDS011;10134;50.952;6.930;2023-02-26T03:48:27;3.47;;;1.50;;
19944;SDS011;10134;50.952;6.930;2023-02-26T03:50:58;5.43;;;1.97;;
19944;SDS011;10134;50.952;6.930;2023-02-26T03:53:55;5.00;;;1.90;;
19944;SDS011;10134;50.952;6.930;2023-02-26T03:56:35;3.20;;;1.30;;
19944;SDS011;10134;50.952;6.930;2023-02-26T03:59:13;4.93;;;1.40;;
19944;SDS011;10134;50.952;6.930;2023-02-26T04:01:50;7.17;;;1.83;;
19944;SDS011;10134;50.952;6.930;2023-02-26T04:07:12;6.97;;;1.30;;
19944;SDS011;10134;50.952;6.930;2023-02-26T04:09:41;1.87;;;1.30;;
19944;SDS011;10134;50.952;6.930;2023-02-26T04:12:09;2.27;;;1.33;;
19944;SDS011;10134;50.952;6.930;2023-02-26T04:14:40;3.30;;;1.50;;
19944;SDS011;10134;50.952;6.930;2023-02-26T04:17:08;2.37;;;0.97;;
19944;SDS011;10134;50.952;6.930;2023-02-26T04:19:36;2.07;;;1.37;;
19944;SDS011;10134;50.952;6.930;2023-02-26T04:22:03;1.57;;;1.03;;
19944;SDS011;10134;50.952;6.930;2023-02-26T04:24:30;9.70;;;1.40;;
19944;SDS011;10134;50.952;6.930;2023-02-26T04:27:00;1.77;;;1.20;;
19944;SDS011;10134;50.952;6.930;2023-02-26T04:29:28;2.27;;;1.17;;
19944;SDS011;10134;50.952;6.930;2023-02-26T04:31:56;1.77;;;1.10;;
19944;SDS011;10134;50.952;6.930;2023-02-26T04:34:23;2.63;;;1.13;;
19944;SDS011;10134;50.952;6.930;2023-02-26T04:36:51;3.40;;;1.40;;
19944;SDS011;10134;50.952;6.930;2023-02-26T04:39:19;3.30;;;1.20;;
19944;SDS011;10134;50.952;6.930;2023-02-26T04:41:46;2.10;;;1.20;;
19944;SDS011;10134;50.952;6.930;2023-02-26T04:44:14;4.23;;;1.10;;
19944;SDS011;10134;50.952;6.930;2023-02-26T04:46:42;5.87;;;1.67;;
19944;SDS011;10134;50.952;6.930;2023-02-26T04:49:10;1.87;;;1.17;;
19944;SDS011;10134;50.952;6.930;2023-02-26T04:51:41;4.57;;;1.70;;
19944;SDS011;10134;50.952;6.930;2023-02-26T04:54:10;3.60;;;1.60;;
19944;SDS011;10134;50.952;6.930;2023-02-26T04:56:38;8.43;;;1.50;;
19944;SDS011;10134;50.952;6.930;2023-02-26T04:59:05;3.53;;;1.57;;
19944;SDS011;10134;50.952;6.930;2023-02-26T05:01:33;4.67;;;1.40;;
19944;SDS011;10134;50.952;6.930;2023-02-26T05:04:04;4.73;;;1.20;;
19944;SDS011;10134;50.952;6.930;2023-02-26T05:06:31;2.73;;;1.20;;
19944;SDS011;10134;50.952;6.930;2023-02-26T05:08:58;5.90;;;1.60;;
19944;SDS011;10134;50.952;6.930;2023-02-26T05:11:25;3.37;;;1.33;;
19944;SDS011;10134;50.952;6.930;2023-02-26T05:13:53;1.50;;;0.97;;
19944;SDS011;10134;50.952;6.930;2023-02-26T05:16:20;3.43;;;1.17;;
19944;SDS011;10134;50.952;6.930;2023-02-26T05:18:48;2.90;;;1.17;;
19944;SDS011;10134;50.952;6.930;2023-02-26T05:21:16;2.27;;;1.20;;
19944;SDS011;10134;50.952;6.930;2023-02-26T05:23:43;3.07;;;1.23;;
19944;SDS011;10134;50.952;6.930;2023-02-26T05:26:11;4.97;;;1.50;;
19944;SDS011;10134;50.952;6.930;2023-02-26T05:28:38;8.50;;;1.60;;
19944;SDS011;10134;50.952;6.930;2023-02-26T05:31:05;2.73;;;0.93;;
19944;SDS011;10134;50.952;6.930;2023-02-26T05:33:34;3.47;;;1.23;;
19944;SDS011;10134;50.952;6.930;2023-02-26T05:36:01;1.77;;;1.00;;
19944;SDS011;10134;50.952;6.930;2023-02-26T05:38:28;8.00;;;2.03;;
19944;SDS011;10134;50.952;6.930;2023-02-26T05:40:56;1.43;;;0.93;;
19944;SDS011;10134;50.952;6.930;2023-02-26T05:43:24;2.60;;;1.40;;
19944;SDS011;10134;50.952;6.930;2023-02-26T05:45:52;6.27;;;1.50;;
19944;SDS011;10134;50.952;6.930;2023-02-26T05:48:21;2.03;;;1.10;;
19944;SDS011;10134;50.952;6.930;2023-02-26T05:50:49;4.53;;;1.30;;
19944;SDS011;10134;50.952;6.930;2023-02-26T05:53:17;2.00;;;1.57;;
19944;SDS011;10134;50.952;6.930;2023-02-26T05:55:44;4.87;;;1.33;;
19944;SDS011;10134;50.952;6.930;2023-02-26T05:58:12;7.27;;;1.20;;
19944;SDS011;10134;50.952;6.930;2023-02-26T06:00:39;4.90;;;1.43;;
19944;SDS011;10134;50.952;6.930;2023-02-26T06:03:06;4.47;;;1.40;;
19944;SDS011;10134;50.952;6.930;2023-02-26T06:05:34;1.57;;;1.27;;
19944;SDS011;10134;50.952;6.930;2023-02-26T06:08:02;4.40;;;1.27;;
19944;SDS011;10134;50.952;6.930;2023-02-26T06:10:31;3.60;;;1.20;;
19944;SDS011;10134;50.952;6.930;2023-02-26T06:12:58;3.20;;;1.30;;
19944;SDS011;10134;50.952;6.930;2023-02-26T06:15:25;4.73;;;1.57;;
19944;SDS011;10134;50.952;6.930;2023-02-26T06:17:53;2.63;;;1.47;;
19944;SDS011;10134;50.952;6.930;2023-02-26T06:20:20;4.63;;;1.33;;
19944;SDS011;10134;50.952;6.930;2023-02-26T06:22:47;3.03;;;1.63;;
19944;SDS011;10134;50.952;6.930;2023-02-26T06:25:15;6.63;;;2.53;;
19944;SDS011;10134;50.952;6.930;2023-02-26T06:27:42;2.50;;;1.57;;
19944;SDS011;10134;50.952;6.930;2023-02-26T06:30:10;2.97;;;1.47;;
19944;SDS011;10134;50.952;6.930;2023-02-26T06:32:37;3.93;;;1.80;;
19944;SDS011;10134;50.952;6.930;2023-02-26T06:35:05;4.00;;;1.93;;
19944;SDS011;10134;50.952;6.930;2023-02-26T06:37:33;7.47;;;1.53;;
19944;SDS011;10134;50.952;6.930;2023-02-26T06:40:00;6.23;;;1.83;;
19944;SDS011;10134;50.952;6.930;2023-02-26T06:42:27;6.97;;;2.10;;
19944;SDS011;10134;50.952;6.930;2023-02-26T06:44:55;5.80;;;2.03;;
19944;SDS011;10134;50.952;6.930;2023-02-26T06:47:22;4.23;;;2.33;;
19944;SDS011;10134;50.952;6.930;2023-02-26T06:49:50;5.40;;;2.20;;
19944;SDS011;10134;50.952;6.930;2023-02-26T06:52:17;2.83;;;2.10;;
19944;SDS011;10134;50.952;6.930;2023-02-26T06:54:45;7.60;;;2.63;;
19944;SDS011;10134;50.952;6.930;2023-02-26T06:57:12;3.40;;;1.80;;
19944;SDS011;10134;50.952;6.930;2023-02-26T06:59:39;4.50;;;1.90;;
19944;SDS011;10134;50.952;6.930;2023-02-26T07:02:09;2.40;;;1.77;;
19944;SDS011;10134;50.952;6.930;2023-02-26T07:04:42;4.13;;;1.40;;
19944;SDS011;10134;50.952;6.930;2023-02-26T07:07:10;3.07;;;1.57;;
19944;SDS011;10134;50.952;6.930;2023-02-26T07:09:38;4.73;;;1.97;;
19944;SDS011;10134;50.952;6.930;2023-02-26T07:12:05;4.57;;;1.80;;
19944;SDS011;10134;50.952;6.930;2023-02-26T07:14:35;3.73;;;1.97;;
19944;SDS011;10134;50.952;6.930;2023-02-26T07:17:03;5.77;;;2.10;;
19944;SDS011;10134;50.952;6.930;2023-02-26T07:19:30;6.30;;;2.20;;
19944;SDS011;10134;50.952;6.930;2023-02-26T07:21:57;2.10;;;1.80;;
19944;SDS011;10134;50.952;6.930;2023-02-26T07:24:25;4.97;;;2.07;;
19944;SDS011;10134;50.952;6.930;2023-02-26T07:26:52;3.97;;;2.07;;
19944;SDS011;10134;50.952;6.930;2023-02-26T07:29:19;2.43;;;1.80;;
19944;SDS011;10134;50.952;6.930;2023-02-26T07:31:47;10.27;;;2.50;;
19944;SDS011;10134;50.952;6.930;2023-02-26T07:34:14;3.80;;;2.23;;
19944;SDS011;10134;50.952;6.930;2023-02-26T07:36:42;4.00;;;2.00;;
19944;SDS011;10134;50.952;6.930;2023-02-26T07:39:09;3.33;;;2.17;;
19944;SDS011;10134;50.952;6.930;2023-02-26T07:41:37;2.77;;;1.90;;
19944;SDS011;10134;50.952;6.930;2023-02-26T07:44:12;5.63;;;2.27;;
19944;SDS011;10134;50.952;6.930;2023-02-26T07:46:39;6.73;;;2.43;;
19944;SDS011;10134;50.952;6.930;2023-02-26T07:49:07;5.93;;;2.13;;
19944;SDS011;10134;50.952;6.930;2023-02-26T07:51:35;11.00;;;2.70;;
19944;SDS011;10134;50.952;6.930;2023-02-26T07:54:03;3.83;;;2.27;;
19944;SDS011;10134;50.952;6.930;2023-02-26T07:56:30;3.43;;;2.07;;
19944;SDS011;10134;50.952;6.930;2023-02-26T07:58:57;4.80;;;2.33;;
19944;SDS011;10134;50.952;6.930;2023-02-26T08:01:25;3.53;;;2.13;;
19944;SDS011;10134;50.952;6.930;2023-02-26T08:03:52;3.13;;;2.30;;
19944;SDS011;10134;50.952;6.930;2023-02-26T08:06:19;5.50;;;2.47;;
19944;SDS011;10134;50.952;6.930;2023-02-26T08:08:47;3.23;;;2.60;;
19944;SDS011;10134;50.952;6.930;2023-02-26T08:11:14;2.83;;;2.03;;
19944;SDS011;10134;50.952;6.930;2023-02-26T08:13:41;4.67;;;1.97;;
19944;SDS011;10134;50.952;6.930;2023-02-26T08:16:09;2.63;;;1.97;;
19944;SDS011;10134;50.952;6.930;2023-02-26T08:18:36;6.73;;;4.07;;
19944;SDS011;10134;50.952;6.930;2023-02-26T08:21:04;5.53;;;2.77;;
19944;SDS011;10134;50.952;6.930;2023-02-26T08:23:31;6.70;;;2.27;;
19944;SDS011;10134;50.952;6.930;2023-02-26T08:26:03;4.67;;;2.63;;
19944;SDS011;10134;50.952;6.930;2023-02-26T08:28:31;2.63;;;2.00;;
19944;SDS011;10134;50.952;6.930;2023-02-26T08:30:59;4.47;;;2.27;;
19944;SDS011;10134;50.952;6.930;2023-02-26T08:33:27;4.83;;;1.93;;
19944;SDS011;10134;50.952;6.930;2023-02-26T08:35:55;3.13;;;2.10;;
19944;SDS011;10134;50.952;6.930;2023-02-26T08:38:25;6.47;;;3.07;;
19944;SDS011;10134;50.952;6.930;2023-02-26T08:40:53;3.47;;;2.10;;
19944;SDS011;10134;50.952;6.930;2023-02-26T08:43:21;3.73;;;2.20;;
19944;SDS011;10134;50.952;6.930;2023-02-26T08:45:50;6.83;;;2.30;;
19944;SDS011;10134;50.952;6.930;2023-02-26T08:48:18;3.33;;;2.07;;
19944;SDS011;10134;50.952;6.930;2023-02-26T08:50:46;3.23;;;2.53;;
19944;SDS011;10134;50.952;6.930;2023-02-26T08:53:14;6.43;;;2.30;;
19944;SDS011;10134;50.952;6.930;2023-02-26T08:55:41;1.63;;;1.27;;
19944;SDS011;10134;50.952;6.930;2023-02-26T08:58:10;2.63;;;1.60;;
19944;SDS011;10134;50.952;6.930;2023-02-26T09:00:37;5.10;;;2.07;;
19944;SDS011;10134;50.952;6.930;2023-02-26T09:03:05;4.70;;;1.90;;
19944;SDS011;10134;50.952;6.930;2023-02-26T09:05:32;5.27;;;2.17;;
19944;SDS011;10134;50.952;6.930;2023-02-26T09:07:59;3.13;;;1.47;;
19944;SDS011;10134;50.952;6.930;2023-02-26T09:10:27;2.40;;;1.50;;
19944;SDS011;10134;50.952;6.930;2023-02-26T09:12:55;4.47;;;1.53;;
19944;SDS011;10134;50.952;6.930;2023-02-26T09:15:22;4.67;;;1.73;;
19944;SDS011;10134;50.952;6.930;2023-02-26T09:17:50;2.40;;;1.33;;
19944;SDS011;10134;50.952;6.930;2023-02-26T09:20:18;3.50;;;1.30;;
19944;SDS011;10134;50.952;6.930;2023-02-26T09:22:45;3.87;;;1.60;;
19944;SDS011;10134;50.952;6.930;2023-02-26T09:25:13;3.57;;;1.50;;
19944;SDS011;10134;50.952;6.930;2023-02-26T09:27:41;1.63;;;1.43;;
19944;SDS011;10134;50.952;6.930;2023-02-26T09:30:08;2.17;;;1.37;;
19944;SDS011;10134;50.952;6.930;2023-02-26T09:32:36;5.10;;;2.10;;
19944;SDS011;10134;50.952;6.930;2023-02-26T09:35:04;7.23;;;2.13;;
19944;SDS011;10134;50.952;6.930;2023-02-26T09:37:32;2.10;;;1.40;;
19944;SDS011;10134;50.952;6.930;2023-02-26T09:39:59;2.60;;;1.57;;
19944;SDS011;10134;50.952;6.930;2023-02-26T09:42:53;3.40;;;1.40;;
19944;SDS011;10134;50.952;6.930;2023-02-26T09:45:36;2.37;;;1.43;;
19944;SDS011;10134;50.952;6.930;2023-02-26T09:48:05;4.10;;;1.90;;
19944;SDS011;10134;50.952;6.930;2023-02-26T09:50:41;2.20;;;1.67;;
19944;SDS011;10134;50.952;6.930;2023-02-26T09:53:34;2.63;;;1.50;;
19944;SDS011;10134;50.952;6.930;2023-02-26T09:56:07;2.10;;;1.20;;
19944;SDS011;10134;50.952;6.930;2023-02-26T09:58:41;1.83;;;1.20;;
19944;SDS011;10134;50.952;6.930;2023-02-26T10:06:31;4.10;;;1.10;;
19944;SDS011;10134;50.952;6.930;2023-02-26T10:09:12;9.27;;;1.17;;
19944;SDS011;10134;50.952;6.930;2023-02-26T10:12:06;3.27;;;1.00;;
19944;SDS011;10134;50.952;6.930;2023-02-26T10:14:58;3.20;;;1.27;;
19944;SDS011;10134;50.952;6.930;2023-02-26T10:23:15;1.73;;;0.90;;
19944;SDS011;10134;50.952;6.930;2023-02-26T10:28:41;1.20;;;1.10;;
19944;SDS011;10134;50.952;6.930;2023-02-26T10:31:21;3.43;;;1.17;;
19944;SDS011;10134;50.952;6.930;2023-02-26T10:39:40;0.80;;;0.50;;
19944;SDS011;10134;50.952;6.930;2023-02-26T10:42:19;1.00;;;0.90;;
19944;SDS011;10134;50.952;6.930;2023-02-26T10:44:55;3.37;;;0.70;;
19944;SDS011;10134;50.952;6.930;2023-02-26T10:47:31;1.40;;;0.80;;
19944;SDS011;10134;50.952;6.930;2023-02-26T10:50:10;1.63;;;1.00;;
19944;SDS011;10134;50.952;6.930;2023-02-26T10:52:41;2.70;;;0.83;;
19944;SDS011;10134;50.952;6.930;2023-02-26T10:58:05;1.73;;;0.90;;
19944;SDS011;10134;50.952;6.930;2023-02-26T11:00:41;3.07;;;0.90;;
19944;SDS011;10134;50.952;6.930;2023-02-26T11:03:15;1.27;;;0.90;;
19944;SDS011;10134;50.952;6.930;2023-02-26T11:05:45;2.90;;;1.40;;
19944;SDS011;10134;50.952;6.930;2023-02-26T11:08:16;2.50;;;1.03;;
19944;SDS011;10134;50.952;6.930;2023-02-26T11:10:56;4.80;;;1.63;;
19944;SDS011;10134;50.952;6.930;2023-02-26T11:13:26;3.77;;;1.30;;
19944;SDS011;10134;50.952;6.930;2023-02-26T11:15:56;1.53;;;0.87;;
19944;SDS011;10134;50.952;6.930;2023-02-26T11:18:28;2.20;;;1.20;;
19944;SDS011;10134;50.952;6.930;2023-02-26T11:21:02;2.73;;;0.97;;
19944;SDS011;10134;50.952;6.930;2023-02-26T11:23:31;1.17;;;0.90;;
19944;SDS011;10134;50.952;6.930;2023-02-26T11:26:04;3.57;;;1.10;;
19944;SDS011;10134;50.952;6.930;2023-02-26T11:31:06;2.23;;;1.33;;
19944;SDS011;10134;50.952;6.930;2023-02-26T11:33:38;2.93;;;0.90;;
19944;SDS011;10134;50.952;6.930;2023-02-26T11:36:08;1.67;;;0.97;;
19944;SDS011;10134;50.952;6.930;2023-02-26T11:38:45;2.27;;;1.00;;
19944;SDS011;10134;50.952;6.930;2023-02-26T11:41:18;3.17;;;0.97;;
19944;SDS011;10134;50.952;6.930;2023-02-26T11:43:58;1.97;;;1.13;;
19944;SDS011;10134;50.952;6.930;2023-02-26T11:46:28;0.77;;;0.77;;
19944;SDS011;10134;50.952;6.930;2023-02-26T11:48:57;3.27;;;0.80;;
19944;SDS011;10134;50.952;6.930;2023-02-26T11:51:27;1.23;;;0.73;;
19944;SDS011;10134;50.952;6.930;2023-02-26T11:53:56;1.87;;;1.00;;
19944;SDS011;10134;50.952;6.930;2023-02-26T11:56:33;2.20;;;0.90;;
19944;SDS011;10134;50.952;6.930;2023-02-26T11:59:06;2.07;;;0.90;;
19944;SDS011;10134;50.952;6.930;2023-02-26T12:01:47;1.07;;;0.90;;
19944;SDS011;10134;50.952;6.930;2023-02-26T12:04:20;2.00;;;0.60;;
19944;SDS011;10134;50.952;6.930;2023-02-26T12:06:49;1.20;;;0.90;;
19944;SDS011;10134;50.952;6.930;2023-02-26T12:09:18;1.67;;;0.87;;
19944;SDS011;10134;50.952;6.930;2023-02-26T12:11:52;2.33;;;0.93;;
19944;SDS011;10134;50.952;6.930;2023-02-26T12:14:40;4.53;;;1.37;;
19944;SDS011;10134;50.952;6.930;2023-02-26T12:20:12;4.27;;;1.67;;
19944;SDS011;10134;50.952;6.930;2023-02-26T12:34:51;1.17;;;0.80;;
19944;SDS011;10134;50.952;6.930;2023-02-26T12:37:52;4.73;;;1.57;;
19944;SDS011;10134;50.952;6.930;2023-02-26T12:43:28;2.67;;;0.97;;
19944;SDS011;10134;50.952;6.930;2023-02-26T12:46:04;2.60;;;0.83;;
19944;SDS011;10134;50.952;6.930;2023-02-26T12:51:17;2.17;;;0.90;;
19944;SDS011;10134;50.952;6.930;2023-02-26T12:54:12;1.73;;;0.83;;
19944;SDS011;10134;50.952;6.930;2023-02-26T12:59:34;3.30;;;0.70;;
19944;SDS011;10134;50.952;6.930;2023-02-26T13:02:25;2.37;;;1.17;;
19944;SDS011;10134;50.952;6.930;2023-02-26T13:11:00;2.90;;;0.70;;
19944;SDS011;10134;50.952;6.930;2023-02-26T13:22:16;3.53;;;1.50;;
19944;SDS011;10134;50.952;6.930;2023-02-26T13:24:53;2.27;;;0.90;;
19944;SDS011;10134;50.952;6.930;2023-02-26T13:27:32;1.67;;;0.97;;
19944;SDS011;10134;50.952;6.930;2023-02-26T13:30:05;1.13;;;0.83;;
19944;SDS011;10134;50.952;6.930;2023-02-26T13:32:36;1.57;;;0.90;;
19944;SDS011;10134;50.952;6.930;2023-02-26T13:35:06;1.03;;;0.70;;
19944;SDS011;10134;50.952;6.930;2023-02-26T13:37:49;2.57;;;0.93;;
19944;SDS011;10134;50.952;6.930;2023-02-26T13:42:59;2.47;;;0.70;;
19944;SDS011;10134;50.952;6.930;2023-02-26T13:51:22;4.33;;;1.50;;
19944;SDS011;10134;50.952;6.930;2023-02-26T14:04:50;1.17;;;0.80;;
19944;SDS011;10134;50.952;6.930;2023-02-26T14:15:48;3.00;;;0.90;;
19944;SDS011;10134;50.952;6.930;2023-02-26T14:18:35;2.53;;;0.80;;
19944;SDS011;10134;50.952;6.930;2023-02-26T14:32:29;2.67;;;1.00;;
19944;SDS011;10134;50.952;6.930;2023-02-26T14:35:19;1.53;;;0.93;;
19944;SDS011;10134;50.952;6.930;2023-02-26T14:37:52;1.33;;;1.00;;
19944;SDS011;10134;50.952;6.930;2023-02-26T14:40:33;2.33;;;1.00;;
19944;SDS011;10134;50.952;6.930;2023-02-26T14:43:09;2.17;;;0.83;;
19944;SDS011;10134;50.952;6.930;2023-02-26T14:45:44;1.80;;;0.70;;
19944;SDS011;10134;50.952;6.930;2023-02-26T14:48:14;2.47;;;0.90;;
19944;SDS011;10134;50.952;6.930;2023-02-26T14:53:40;1.20;;;0.77;;
19944;SDS011;10134;50.952;6.930;2023-02-26T14:56:56;1.00;;;0.80;;
19944;SDS011;10134;50.952;6.930;2023-02-26T15:00:12;4.83;;;0.87;;
19944;SDS011;10134;50.952;6.930;2023-02-26T15:03:09;1.27;;;0.80;;
19944;SDS011;10134;50.952;6.930;2023-02-26T15:13:47;2.73;;;1.27;;
19944;SDS011;10134;50.952;6.930;2023-02-26T15:22:10;2.90;;;0.90;;
19944;SDS011;10134;50.952;6.930;2023-02-26T15:24:43;1.60;;;0.70;;
19944;SDS011;10134;50.952;6.930;2023-02-26T15:27:13;4.07;;;1.10;;
19944;SDS011;10134;50.952;6.930;2023-02-26T15:29:43;2.50;;;1.10;;
19944;SDS011;10134;50.952;6.930;2023-02-26T15:34:58;2.07;;;0.97;;
19944;SDS011;10134;50.952;6.930;2023-02-26T15:37:49;1.43;;;0.70;;
19944;SDS011;10134;50.952;6.930;2023-02-26T15:40:19;2.53;;;1.13;;
19944;SDS011;10134;50.952;6.930;2023-02-26T15:42:51;1.87;;;0.80;;
19944;SDS011;10134;50.952;6.930;2023-02-26T15:45:35;1.77;;;0.70;;
19944;SDS011;10134;50.952;6.930;2023-02-26T15:48:16;0.83;;;0.50;;
19944;SDS011;10134;50.952;6.930;2023-02-26T15:50:55;2.13;;;0.80;;
19944;SDS011;10134;50.952;6.930;2023-02-26T15:55:59;1.63;;;0.80;;
19944;SDS011;10134;50.952;6.930;2023-02-26T15:58:38;1.07;;;0.50;;
19944;SDS011;10134;50.952;6.930;2023-02-26T16:01:16;1.83;;;0.80;;
19944;SDS011;10134;50.952;6.930;2023-02-26T16:03:46;2.20;;;0.80;;
19944;SDS011;10134;50.952;6.930;2023-02-26T16:06:18;3.43;;;1.07;;
19944;SDS011;10134;50.952;6.930;2023-02-26T16:08:50;2.30;;;0.77;;
19944;SDS011;10134;50.952;6.930;2023-02-26T16:11:18;1.33;;;1.10;;
19944;SDS011;10134;50.952;6.930;2023-02-26T16:13:48;3.53;;;0.90;;
19944;SDS011;10134;50.952;6.930;2023-02-26T16:16:20;2.30;;;1.30;;
19944;SDS011;10134;50.952;6.930;2023-02-26T16:18:54;1.50;;;0.60;;
19944;SDS011;10134;50.952;6.930;2023-02-26T16:21:26;1.50;;;0.80;;
19944;SDS011;10134;50.952;6.930;2023-02-26T16:23:59;4.07;;;1.10;;
19944;SDS011;10134;50.952;6.930;2023-02-26T16:26:30;3.03;;;1.00;;
19944;SDS011;10134;50.952;6.930;2023-02-26T16:29:03;2.43;;;0.90;;
19944;SDS011;10134;50.952;6.930;2023-02-26T16:31:40;4.53;;;1.27;;
19944;SDS011;10134;50.952;6.930;2023-02-26T16:37:37;3.40;;;1.60;;
19944;SDS011;10134;50.952;6.930;2023-02-26T16:46:06;1.60;;;0.93;;
19944;SDS011;10134;50.952;6.930;2023-02-26T16:48:43;0.73;;;0.73;;
19944;SDS011;10134;50.952;6.930;2023-02-26T16:51:22;1.37;;;0.80;;
19944;SDS011;10134;50.952;6.930;2023-02-26T16:53:53;1.00;;;0.70;;
19944;SDS011;10134;50.952;6.930;2023-02-26T16:56:26;1.97;;;1.00;;
19944;SDS011;10134;50.952;6.930;2023-02-26T17:02:11;2.80;;;0.80;;
19944;SDS011;10134;50.952;6.930;2023-02-26T17:04:45;2.37;;;1.10;;
19944;SDS011;10134;50.952;6.930;2023-02-26T17:07:21;1.20;;;1.07;;
19944;SDS011;10134;50.952;6.930;2023-02-26T17:09:55;2.40;;;1.00;;
19944;SDS011;10134;50.952;6.930;2023-02-26T17:12:45;1.53;;;0.97;;
19944;SDS011;10134;50.952;6.930;2023-02-26T17:15:16;2.00;;;0.70;;
19944;SDS011;10134;50.952;6.930;2023-02-26T17:17:58;1.90;;;1.20;;
19944;SDS011;10134;50.952;6.930;2023-02-26T17:20:27;5.83;;;1.20;;
19944;SDS011;10134;50.952;6.930;2023-02-26T17:22:55;3.37;;;1.10;;
19944;SDS011;10134;50.952;6.930;2023-02-26T17:25:26;2.67;;;1.17;;
19944;SDS011;10134;50.952;6.930;2023-02-26T17:28:00;1.27;;;0.90;;
19944;SDS011;10134;50.952;6.930;2023-02-26T17:30:28;3.13;;;1.10;;
19944;SDS011;10134;50.952;6.930;2023-02-26T17:33:00;3.57;;;1.27;;
19944;SDS011;10134;50.952;6.930;2023-02-26T17:35:30;2.70;;;1.23;;
19944;SDS011;10134;50.952;6.930;2023-02-26T17:37:57;5.63;;;1.47;;
19944;SDS011;10134;50.952;6.930;2023-02-26T17:40:27;6.30;;;1.30;;
19944;SDS011;10134;50.952;6.930;2023-02-26T17:43:00;2.20;;;1.07;;
19944;SDS011;10134;50.952;6.930;2023-02-26T17:45:30;1.00;;;0.90;;
19944;SDS011;10134;50.952;6.930;2023-02-26T17:47:59;1.60;;;1.03;;
19944;SDS011;10134;50.952;6.930;2023-02-26T17:50:42;1.53;;;1.00;;
19944;SDS011;10134;50.952;6.930;2023-02-26T17:53:16;4.37;;;1.00;;
19944;SDS011;10134;50.952;6.930;2023-02-26T17:55:45;3.10;;;1.30;;
19944;SDS011;10134;50.952;6.930;2023-02-26T17:58:16;1.20;;;1.03;;
19944;SDS011;10134;50.952;6.930;2023-02-26T18:00:48;3.37;;;1.23;;
19944;SDS011;10134;50.952;6.930;2023-02-26T18:03:19;2.03;;;1.50;;
19944;SDS011;10134;50.952;6.930;2023-02-26T18:05:47;2.40;;;1.53;;
19944;SDS011;10134;50.952;6.930;2023-02-26T18:08:24;4.87;;;2.00;;
19944;SDS011;10134;50.952;6.930;2023-02-26T18:10:52;2.90;;;1.63;;
19944;SDS011;10134;50.952;6.930;2023-02-26T18:13:20;2.50;;;1.73;;
19944;SDS011;10134;50.952;6.930;2023-02-26T18:15:48;5.87;;;2.27;;
19944;SDS011;10134;50.952;6.930;2023-02-26T18:18:17;4.60;;;2.20;;
19944;SDS011;10134;50.952;6.930;2023-02-26T18:20:45;5.50;;;1.97;;